sensor_id;sensor_type;location;lat;lon;timestamp;P1;durP1;ratioP1;P2;durP2;ratioP2
29452;SDS011;16424;50.956;5.320;2023-05-10T00:01:58;14.98;;;9.13;;
29452;SDS011;16424;50.956;5.320;2023-05-10T00:04:23;13.68;;;8.45;;
29452;SDS011;16424;50.956;5.320;2023-05-10T00:06:52;18.55;;;10.13;;
29452;SDS011;16424;50.956;5.320;2023-05-10T00:09:18;15.63;;;9.05;;
29452;SDS011;16424;50.956;5.320;2023-05-10T00:11:44;14.48;;;8.18;;
29452;SDS011;16424;50.956;5.320;2023-05-10T00:14:09;17.00;;;8.75;;
29452;SDS011;16424;50.956;5.320;2023-05-10T00:16:35;14.50;;;8.68;;
29452;SDS011;16424;50.956;5.320;2023-05-10T00:19:00;14.35;;;8.48;;
29452;SDS011;16424;50.956;5.320;2023-05-10T00:21:26;10.50;;;7.75;;
29452;SDS011;16424;50.956;5.320;2023-05-10T00:23:53;13.18;;;7.78;;
29452;SDS011;16424;50.956;5.320;2023-05-10T00:26:19;15.38;;;8.85;;
29452;SDS011;16424;50.956;5.320;2023-05-10T00:28:45;12.05;;;7.60;;
29452;SDS011;16424;50.956;5.320;2023-05-10T00:31:10;13.00;;;8.35;;
29452;SDS011;16424;50.956;5.320;2023-05-10T00:33:36;11.63;;;8.25;;
29452;SDS011;16424;50.956;5.320;2023-05-10T00:36:02;11.35;;;6.97;;
29452;SDS011;16424;50.956;5.320;2023-05-10T00:38:28;10.55;;;7.45;;
29452;SDS011;16424;50.956;5.320;2023-05-10T00:40:53;12.63;;;8.48;;
29452;SDS011;16424;50.956;5.320;2023-05-10T00:43:19;14.27;;;7.60;;
29452;SDS011;16424;50.956;5.320;2023-05-10T00:45:45;12.88;;;7.28;;
29452;SDS011;16424;50.956;5.320;2023-05-10T00:48:11;12.45;;;7.18;;
29452;SDS011;16424;50.956;5.320;2023-05-10T00:50:37;13.27;;;8.32;;
29452;SDS011;16424;50.956;5.320;2023-05-10T00:53:03;15.57;;;7.25;;
29452;SDS011;16424;50.956;5.320;2023-05-10T00:55:29;13.23;;;7.55;;
29452;SDS011;16424;50.956;5.320;2023-05-10T00:57:56;13.85;;;7.43;;
29452;SDS011;16424;50.956;5.320;2023-05-10T01:00:21;11.75;;;7.38;;
29452;SDS011;16424;50.956;5.320;2023-05-10T01:02:47;13.77;;;8.27;;
29452;SDS011;16424;50.956;5.320;2023-05-10T01:05:14;14.48;;;8.00;;
29452;SDS011;16424;50.956;5.320;2023-05-10T01:07:40;14.27;;;7.82;;
29452;SDS011;16424;50.956;5.320;2023-05-10T01:10:06;14.27;;;8.00;;
29452;SDS011;16424;50.956;5.320;2023-05-10T01:12:34;12.25;;;7.95;;
29452;SDS011;16424;50.956;5.320;2023-05-10T01:15:03;13.25;;;7.20;;
29452;SDS011;16424;50.956;5.320;2023-05-10T01:17:30;14.43;;;7.85;;
29452;SDS011;16424;50.956;5.320;2023-05-10T01:19:57;17.27;;;7.38;;
29452;SDS011;16424;50.956;5.320;2023-05-10T01:22:40;15.70;;;7.88;;
29452;SDS011;16424;50.956;5.320;2023-05-10T01:34:05;13.65;;;6.38;;
29452;SDS011;16424;50.956;5.320;2023-05-10T01:36:57;11.27;;;7.05;;
29452;SDS011;16424;50.956;5.320;2023-05-10T01:42:10;11.75;;;6.93;;
29452;SDS011;16424;50.956;5.320;2023-05-10T01:44:40;14.65;;;7.70;;
29452;SDS011;16424;50.956;5.320;2023-05-10T01:47:26;15.15;;;7.40;;
29452;SDS011;16424;50.956;5.320;2023-05-10T01:50:04;14.27;;;7.78;;
29452;SDS011;16424;50.956;5.320;2023-05-10T01:52:42;14.80;;;7.38;;
29452;SDS011;16424;50.956;5.320;2023-05-10T01:55:14;17.90;;;7.85;;
29452;SDS011;16424;50.956;5.320;2023-05-10T01:57:43;16.75;;;8.40;;
29452;SDS011;16424;50.956;5.320;2023-05-10T02:00:11;19.73;;;8.30;;
29452;SDS011;16424;50.956;5.320;2023-05-10T02:02:39;18.63;;;7.82;;
29452;SDS011;16424;50.956;5.320;2023-05-10T02:05:07;12.98;;;7.28;;
29452;SDS011;16424;50.956;5.320;2023-05-10T02:07:34;16.42;;;8.30;;
29452;SDS011;16424;50.956;5.320;2023-05-10T02:10:04;16.10;;;7.75;;
29452;SDS011;16424;50.956;5.320;2023-05-10T02:12:34;18.05;;;8.60;;
29452;SDS011;16424;50.956;5.320;2023-05-10T02:15:02;17.05;;;8.57;;
29452;SDS011;16424;50.956;5.320;2023-05-10T02:17:30;17.23;;;8.27;;
29452;SDS011;16424;50.956;5.320;2023-05-10T02:19:57;16.15;;;8.35;;
29452;SDS011;16424;50.956;5.320;2023-05-10T02:22:25;14.90;;;8.80;;
29452;SDS011;16424;50.956;5.320;2023-05-10T02:24:53;21.73;;;8.95;;
29452;SDS011;16424;50.956;5.320;2023-05-10T02:27:22;19.85;;;9.00;;
29452;SDS011;16424;50.956;5.320;2023-05-10T02:29:49;21.25;;;9.32;;
29452;SDS011;16424;50.956;5.320;2023-05-10T02:32:16;21.02;;;9.57;;
29452;SDS011;16424;50.956;5.320;2023-05-10T02:34:43;19.38;;;10.15;;
29452;SDS011;16424;50.956;5.320;2023-05-10T02:37:12;15.55;;;9.50;;
29452;SDS011;16424;50.956;5.320;2023-05-10T02:39:41;18.67;;;8.70;;
29452;SDS011;16424;50.956;5.320;2023-05-10T02:42:11;22.83;;;9.13;;
29452;SDS011;16424;50.956;5.320;2023-05-10T02:44:42;16.30;;;9.25;;
29452;SDS011;16424;50.956;5.320;2023-05-10T02:47:10;17.88;;;8.10;;
29452;SDS011;16424;50.956;5.320;2023-05-10T02:49:36;20.27;;;8.52;;
29452;SDS011;16424;50.956;5.320;2023-05-10T02:52:02;14.63;;;8.43;;
29452;SDS011;16424;50.956;5.320;2023-05-10T02:54:33;17.83;;;8.75;;
29452;SDS011;16424;50.956;5.320;2023-05-10T02:57:06;16.48;;;9.00;;
29452;SDS011;16424;50.956;5.320;2023-05-10T02:59:35;15.55;;;8.93;;
29452;SDS011;16424;50.956;5.320;2023-05-10T03:02:01;13.98;;;8.35;;
29452;SDS011;16424;50.956;5.320;2023-05-10T03:04:28;20.52;;;9.45;;
29452;SDS011;16424;50.956;5.320;2023-05-10T03:06:54;19.95;;;9.63;;
29452;SDS011;16424;50.956;5.320;2023-05-10T03:09:20;21.02;;;10.10;;
29452;SDS011;16424;50.956;5.320;2023-05-10T03:11:55;15.57;;;8.95;;
29452;SDS011;16424;50.956;5.320;2023-05-10T03:14:48;18.02;;;8.55;;
29452;SDS011;16424;50.956;5.320;2023-05-10T03:17:23;16.05;;;8.40;;
29452;SDS011;16424;50.956;5.320;2023-05-10T03:20:27;19.38;;;9.57;;
29452;SDS011;16424;50.956;5.320;2023-05-10T03:23:01;17.42;;;8.90;;
29452;SDS011;16424;50.956;5.320;2023-05-10T03:25:32;17.55;;;8.88;;
29452;SDS011;16424;50.956;5.320;2023-05-10T03:27:59;23.55;;;9.32;;
29452;SDS011;16424;50.956;5.320;2023-05-10T03:30:26;17.88;;;9.25;;
29452;SDS011;16424;50.956;5.320;2023-05-10T03:32:53;18.38;;;8.50;;
29452;SDS011;16424;50.956;5.320;2023-05-10T03:35:19;16.77;;;8.23;;
29452;SDS011;16424;50.956;5.320;2023-05-10T03:37:44;17.00;;;8.93;;
29452;SDS011;16424;50.956;5.320;2023-05-10T03:40:10;22.33;;;8.98;;
29452;SDS011;16424;50.956;5.320;2023-05-10T03:42:36;17.75;;;9.70;;
29452;SDS011;16424;50.956;5.320;2023-05-10T03:45:02;19.23;;;9.75;;
29452;SDS011;16424;50.956;5.320;2023-05-10T03:47:27;16.63;;;8.55;;
29452;SDS011;16424;50.956;5.320;2023-05-10T03:49:54;18.42;;;9.52;;
29452;SDS011;16424;50.956;5.320;2023-05-10T03:52:20;22.05;;;8.98;;
29452;SDS011;16424;50.956;5.320;2023-05-10T03:54:46;18.10;;;9.45;;
29452;SDS011;16424;50.956;5.320;2023-05-10T03:57:11;15.88;;;9.55;;
29452;SDS011;16424;50.956;5.320;2023-05-10T03:59:37;16.73;;;9.95;;
29452;SDS011;16424;50.956;5.320;2023-05-10T04:02:03;16.90;;;8.70;;
29452;SDS011;16424;50.956;5.320;2023-05-10T04:04:28;22.45;;;9.85;;
29452;SDS011;16424;50.956;5.320;2023-05-10T04:06:54;19.17;;;9.52;;
29452;SDS011;16424;50.956;5.320;2023-05-10T04:09:20;20.05;;;10.55;;
29452;SDS011;16424;50.956;5.320;2023-05-10T04:11:45;22.15;;;9.52;;
29452;SDS011;16424;50.956;5.320;2023-05-10T04:14:11;21.92;;;10.63;;
29452;SDS011;16424;50.956;5.320;2023-05-10T04:16:37;23.30;;;11.43;;
29452;SDS011;16424;50.956;5.320;2023-05-10T04:19:02;18.20;;;10.43;;
29452;SDS011;16424;50.956;5.320;2023-05-10T04:21:28;19.52;;;9.40;;
29452;SDS011;16424;50.956;5.320;2023-05-10T04:23:54;18.77;;;10.50;;
29452;SDS011;16424;50.956;5.320;2023-05-10T04:26:20;22.30;;;10.82;;
29452;SDS011;16424;50.956;5.320;2023-05-10T04:28:45;18.52;;;10.27;;
29452;SDS011;16424;50.956;5.320;2023-05-10T04:31:11;22.85;;;10.32;;
29452;SDS011;16424;50.956;5.320;2023-05-10T04:33:37;25.05;;;11.93;;
29452;SDS011;16424;50.956;5.320;2023-05-10T04:36:03;22.35;;;12.63;;
29452;SDS011;16424;50.956;5.320;2023-05-10T04:38:29;22.42;;;11.63;;
29452;SDS011;16424;50.956;5.320;2023-05-10T04:40:55;24.30;;;10.90;;
29452;SDS011;16424;50.956;5.320;2023-05-10T04:43:32;24.58;;;12.27;;
29452;SDS011;16424;50.956;5.320;2023-05-10T04:45:58;27.00;;;12.75;;
29452;SDS011;16424;50.956;5.320;2023-05-10T04:48:23;27.58;;;12.80;;
29452;SDS011;16424;50.956;5.320;2023-05-10T04:50:49;23.13;;;11.50;;
29452;SDS011;16424;50.956;5.320;2023-05-10T04:53:15;22.70;;;12.23;;
29452;SDS011;16424;50.956;5.320;2023-05-10T04:55:40;28.23;;;13.80;;
29452;SDS011;16424;50.956;5.320;2023-05-10T04:58:06;30.90;;;13.07;;
29452;SDS011;16424;50.956;5.320;2023-05-10T05:00:32;25.23;;;12.68;;
29452;SDS011;16424;50.956;5.320;2023-05-10T05:02:58;32.58;;;13.77;;
29452;SDS011;16424;50.956;5.320;2023-05-10T05:05:24;28.67;;;14.13;;
29452;SDS011;16424;50.956;5.320;2023-05-10T05:07:50;22.42;;;11.90;;
29452;SDS011;16424;50.956;5.320;2023-05-10T05:10:15;28.98;;;14.02;;
29452;SDS011;16424;50.956;5.320;2023-05-10T05:12:41;30.20;;;14.75;;
29452;SDS011;16424;50.956;5.320;2023-05-10T05:15:07;29.15;;;14.10;;
29452;SDS011;16424;50.956;5.320;2023-05-10T05:17:35;28.40;;;13.52;;
29452;SDS011;16424;50.956;5.320;2023-05-10T05:20:01;25.35;;;13.10;;
29452;SDS011;16424;50.956;5.320;2023-05-10T05:22:28;28.70;;;13.60;;
29452;SDS011;16424;50.956;5.320;2023-05-10T05:24:54;34.97;;;14.82;;
29452;SDS011;16424;50.956;5.320;2023-05-10T05:27:20;30.27;;;14.00;;
29452;SDS011;16424;50.956;5.320;2023-05-10T05:29:49;25.83;;;13.85;;
29452;SDS011;16424;50.956;5.320;2023-05-10T05:32:16;31.13;;;16.13;;
29452;SDS011;16424;50.956;5.320;2023-05-10T05:34:43;41.53;;;16.55;;
29452;SDS011;16424;50.956;5.320;2023-05-10T05:37:12;39.33;;;16.35;;
29452;SDS011;16424;50.956;5.320;2023-05-10T05:39:42;38.67;;;17.17;;
29452;SDS011;16424;50.956;5.320;2023-05-10T05:42:11;42.83;;;17.85;;
29452;SDS011;16424;50.956;5.320;2023-05-10T05:44:37;42.65;;;17.38;;
29452;SDS011;16424;50.956;5.320;2023-05-10T05:47:03;46.03;;;18.88;;
29452;SDS011;16424;50.956;5.320;2023-05-10T05:49:29;41.72;;;18.92;;
29452;SDS011;16424;50.956;5.320;2023-05-10T05:51:58;46.85;;;18.83;;
29452;SDS011;16424;50.956;5.320;2023-05-10T05:54:25;52.60;;;19.60;;
29452;SDS011;16424;50.956;5.320;2023-05-10T05:56:53;48.60;;;20.02;;
29452;SDS011;16424;50.956;5.320;2023-05-10T05:59:22;48.53;;;19.13;;
29452;SDS011;16424;50.956;5.320;2023-05-10T06:01:48;48.35;;;19.98;;
29452;SDS011;16424;50.956;5.320;2023-05-10T06:04:14;51.28;;;20.50;;
29452;SDS011;16424;50.956;5.320;2023-05-10T06:06:40;45.22;;;18.60;;
29452;SDS011;16424;50.956;5.320;2023-05-10T06:09:05;38.85;;;17.63;;
29452;SDS011;16424;50.956;5.320;2023-05-10T06:11:31;44.10;;;18.95;;
29452;SDS011;16424;50.956;5.320;2023-05-10T06:13:57;35.45;;;16.85;;
29452;SDS011;16424;50.956;5.320;2023-05-10T06:16:25;41.55;;;17.98;;
29452;SDS011;16424;50.956;5.320;2023-05-10T06:18:51;40.47;;;17.75;;
29452;SDS011;16424;50.956;5.320;2023-05-10T06:21:16;47.20;;;18.55;;
29452;SDS011;16424;50.956;5.320;2023-05-10T06:23:42;42.08;;;17.70;;
29452;SDS011;16424;50.956;5.320;2023-05-10T06:26:08;43.75;;;18.10;;
29452;SDS011;16424;50.956;5.320;2023-05-10T06:28:34;39.45;;;17.27;;
29452;SDS011;16424;50.956;5.320;2023-05-10T06:31:00;42.08;;;17.50;;
29452;SDS011;16424;50.956;5.320;2023-05-10T06:33:26;47.28;;;18.38;;
29452;SDS011;16424;50.956;5.320;2023-05-10T06:35:52;41.80;;;17.75;;
29452;SDS011;16424;50.956;5.320;2023-05-10T06:38:18;46.40;;;18.38;;
29452;SDS011;16424;50.956;5.320;2023-05-10T06:40:43;45.67;;;18.63;;
29452;SDS011;16424;50.956;5.320;2023-05-10T06:43:09;43.90;;;19.98;;
29452;SDS011;16424;50.956;5.320;2023-05-10T06:45:35;42.03;;;18.20;;
29452;SDS011;16424;50.956;5.320;2023-05-10T06:48:01;45.33;;;19.15;;
29452;SDS011;16424;50.956;5.320;2023-05-10T06:50:26;36.75;;;17.98;;
29452;SDS011;16424;50.956;5.320;2023-05-10T06:52:52;43.90;;;19.45;;
29452;SDS011;16424;50.956;5.320;2023-05-10T06:55:18;45.58;;;17.77;;
29452;SDS011;16424;50.956;5.320;2023-05-10T06:57:43;40.65;;;17.98;;
29452;SDS011;16424;50.956;5.320;2023-05-10T07:00:09;43.13;;;18.48;;
29452;SDS011;16424;50.956;5.320;2023-05-10T07:02:35;47.35;;;19.27;;
29452;SDS011;16424;50.956;5.320;2023-05-10T07:05:01;43.25;;;18.02;;
29452;SDS011;16424;50.956;5.320;2023-05-10T07:07:27;42.92;;;18.25;;
29452;SDS011;16424;50.956;5.320;2023-05-10T07:09:53;46.25;;;17.05;;
29452;SDS011;16424;50.956;5.320;2023-05-10T07:12:19;41.42;;;17.98;;
29452;SDS011;16424;50.956;5.320;2023-05-10T07:14:45;50.45;;;19.67;;
29452;SDS011;16424;50.956;5.320;2023-05-10T07:17:11;44.20;;;17.52;;
29452;SDS011;16424;50.956;5.320;2023-05-10T07:19:37;40.22;;;17.40;;
29452;SDS011;16424;50.956;5.320;2023-05-10T07:22:02;43.83;;;18.67;;
29452;SDS011;16424;50.956;5.320;2023-05-10T07:24:28;48.17;;;19.90;;
29452;SDS011;16424;50.956;5.320;2023-05-10T07:26:54;39.47;;;18.08;;
29452;SDS011;16424;50.956;5.320;2023-05-10T07:29:20;44.10;;;18.63;;
29452;SDS011;16424;50.956;5.320;2023-05-10T07:31:45;45.63;;;17.80;;
29452;SDS011;16424;50.956;5.320;2023-05-10T07:34:11;43.88;;;18.60;;
29452;SDS011;16424;50.956;5.320;2023-05-10T07:36:37;40.67;;;17.92;;
29452;SDS011;16424;50.956;5.320;2023-05-10T07:39:03;39.65;;;18.35;;
29452;SDS011;16424;50.956;5.320;2023-05-10T07:41:29;42.25;;;18.00;;
29452;SDS011;16424;50.956;5.320;2023-05-10T07:43:54;39.88;;;17.45;;
29452;SDS011;16424;50.956;5.320;2023-05-10T07:46:20;39.30;;;18.65;;
29452;SDS011;16424;50.956;5.320;2023-05-10T07:48:46;39.13;;;17.88;;
29452;SDS011;16424;50.956;5.320;2023-05-10T07:51:11;35.33;;;17.17;;
29452;SDS011;16424;50.956;5.320;2023-05-10T07:53:37;37.75;;;17.77;;
29452;SDS011;16424;50.956;5.320;2023-05-10T07:56:19;32.50;;;16.00;;
29452;SDS011;16424;50.956;5.320;2023-05-10T07:58:54;36.50;;;16.98;;
29452;SDS011;16424;50.956;5.320;2023-05-10T08:01:23;40.20;;;16.98;;
29452;SDS011;16424;50.956;5.320;2023-05-10T08:03:49;32.42;;;15.45;;
29452;SDS011;16424;50.956;5.320;2023-05-10T08:06:17;31.10;;;15.13;;
29452;SDS011;16424;50.956;5.320;2023-05-10T08:08:43;26.88;;;14.07;;
29452;SDS011;16424;50.956;5.320;2023-05-10T08:11:14;28.20;;;14.48;;
29452;SDS011;16424;50.956;5.320;2023-05-10T08:13:43;29.23;;;15.00;;
29452;SDS011;16424;50.956;5.320;2023-05-10T08:16:09;24.90;;;12.48;;
29452;SDS011;16424;50.956;5.320;2023-05-10T08:18:35;24.42;;;12.60;;
29452;SDS011;16424;50.956;5.320;2023-05-10T08:21:00;18.38;;;9.77;;
29452;SDS011;16424;50.956;5.320;2023-05-10T08:23:26;12.65;;;5.70;;
29452;SDS011;16424;50.956;5.320;2023-05-10T08:25:51;7.95;;;4.22;;
29452;SDS011;16424;50.956;5.320;2023-05-10T08:28:17;5.20;;;3.55;;
29452;SDS011;16424;50.956;5.320;2023-05-10T08:30:43;5.70;;;3.70;;
29452;SDS011;16424;50.956;5.320;2023-05-10T08:33:08;5.90;;;3.55;;
29452;SDS011;16424;50.956;5.320;2023-05-10T08:35:34;6.13;;;2.30;;
29452;SDS011;16424;50.956;5.320;2023-05-10T08:38:00;6.63;;;2.60;;
29452;SDS011;16424;50.956;5.320;2023-05-10T08:40:26;4.47;;;2.72;;
29452;SDS011;16424;50.956;5.320;2023-05-10T08:42:56;3.45;;;2.20;;
29452;SDS011;16424;50.956;5.320;2023-05-10T08:45:28;4.97;;;2.47;;
29452;SDS011;16424;50.956;5.320;2023-05-10T08:47:59;3.70;;;2.28;;
29452;SDS011;16424;50.956;5.320;2023-05-10T08:50:26;9.05;;;2.88;;
29452;SDS011;16424;50.956;5.320;2023-05-10T08:52:52;4.10;;;2.83;;
29452;SDS011;16424;50.956;5.320;2023-05-10T08:55:23;4.82;;;2.78;;
29452;SDS011;16424;50.956;5.320;2023-05-10T08:57:49;5.70;;;3.35;;
29452;SDS011;16424;50.956;5.320;2023-05-10T09:00:15;3.60;;;2.90;;
29452;SDS011;16424;50.956;5.320;2023-05-10T09:02:43;7.32;;;2.92;;
29452;SDS011;16424;50.956;5.320;2023-05-10T09:05:10;5.00;;;2.88;;
29452;SDS011;16424;50.956;5.320;2023-05-10T09:07:36;4.72;;;3.30;;
29452;SDS011;16424;50.956;5.320;2023-05-10T09:10:02;5.57;;;3.38;;
29452;SDS011;16424;50.956;5.320;2023-05-10T09:12:29;4.13;;;3.03;;
29452;SDS011;16424;50.956;5.320;2023-05-10T09:14:55;4.13;;;2.97;;
29452;SDS011;16424;50.956;5.320;2023-05-10T09:17:24;7.60;;;3.72;;
29452;SDS011;16424;50.956;5.320;2023-05-10T09:19:57;5.57;;;3.33;;
29452;SDS011;16424;50.956;5.320;2023-05-10T09:30:04;6.63;;;3.72;;
29452;SDS011;16424;50.956;5.320;2023-05-10T09:35:07;5.95;;;3.58;;
29452;SDS011;16424;50.956;5.320;2023-05-10T09:37:41;6.22;;;3.55;;
29452;SDS011;16424;50.956;5.320;2023-05-10T09:40:22;7.60;;;4.43;;
29452;SDS011;16424;50.956;5.320;2023-05-10T09:42:59;7.10;;;4.30;;
29452;SDS011;16424;50.956;5.320;2023-05-10T09:45:32;7.25;;;4.28;;
29452;SDS011;16424;50.956;5.320;2023-05-10T09:48:00;7.75;;;4.22;;
29452;SDS011;16424;50.956;5.320;2023-05-10T09:50:27;7.75;;;3.88;;
29452;SDS011;16424;50.956;5.320;2023-05-10T09:52:57;8.50;;;4.88;;
29452;SDS011;16424;50.956;5.320;2023-05-10T09:55:46;9.35;;;4.97;;
29452;SDS011;16424;50.956;5.320;2023-05-10T09:58:11;7.65;;;4.57;;
29452;SDS011;16424;50.956;5.320;2023-05-10T10:00:44;7.68;;;5.30;;
29452;SDS011;16424;50.956;5.320;2023-05-10T10:03:13;10.27;;;5.65;;
29452;SDS011;16424;50.956;5.320;2023-05-10T10:05:44;10.80;;;6.28;;
29452;SDS011;16424;50.956;5.320;2023-05-10T10:08:11;12.95;;;6.68;;
29452;SDS011;16424;50.956;5.320;2023-05-10T10:10:37;9.98;;;6.00;;
29452;SDS011;16424;50.956;5.320;2023-05-10T10:13:05;11.40;;;5.50;;
29452;SDS011;16424;50.956;5.320;2023-05-10T10:15:32;11.10;;;5.95;;
29452;SDS011;16424;50.956;5.320;2023-05-10T10:17:58;9.45;;;6.03;;
29452;SDS011;16424;50.956;5.320;2023-05-10T10:20:25;11.05;;;6.00;;
29452;SDS011;16424;50.956;5.320;2023-05-10T10:22:51;13.18;;;6.80;;
29452;SDS011;16424;50.956;5.320;2023-05-10T10:25:18;12.65;;;6.75;;
29452;SDS011;16424;50.956;5.320;2023-05-10T10:35:52;12.77;;;7.20;;
29452;SDS011;16424;50.956;5.320;2023-05-10T10:38:18;11.10;;;6.68;;
29452;SDS011;16424;50.956;5.320;2023-05-10T10:40:44;10.07;;;6.35;;
29452;SDS011;16424;50.956;5.320;2023-05-10T10:43:22;11.50;;;6.25;;
29452;SDS011;16424;50.956;5.320;2023-05-10T10:46:23;10.52;;;6.30;;
29452;SDS011;16424;50.956;5.320;2023-05-10T10:48:49;12.68;;;5.60;;
29452;SDS011;16424;50.956;5.320;2023-05-10T10:51:32;13.98;;;6.65;;
29452;SDS011;16424;50.956;5.320;2023-05-10T10:54:10;12.30;;;6.65;;
29452;SDS011;16424;50.956;5.320;2023-05-10T10:56:36;9.82;;;5.70;;
29452;SDS011;16424;50.956;5.320;2023-05-10T10:59:02;8.30;;;5.20;;
29452;SDS011;16424;50.956;5.320;2023-05-10T11:01:32;9.00;;;5.25;;
29452;SDS011;16424;50.956;5.320;2023-05-10T11:06:31;9.13;;;5.70;;
29452;SDS011;16424;50.956;5.320;2023-05-10T11:08:59;8.38;;;5.45;;
29452;SDS011;16424;50.956;5.320;2023-05-10T11:11:30;9.48;;;5.30;;
29452;SDS011;16424;50.956;5.320;2023-05-10T11:13:56;7.70;;;4.97;;
29452;SDS011;16424;50.956;5.320;2023-05-10T11:16:28;7.95;;;5.63;;
29452;SDS011;16424;50.956;5.320;2023-05-10T11:19:10;8.50;;;4.95;;
29452;SDS011;16424;50.956;5.320;2023-05-10T11:21:51;8.23;;;5.32;;
29452;SDS011;16424;50.956;5.320;2023-05-10T11:24:37;7.53;;;4.50;;
29452;SDS011;16424;50.956;5.320;2023-05-10T11:27:03;6.03;;;4.20;;
29452;SDS011;16424;50.956;5.320;2023-05-10T11:29:29;6.88;;;4.57;;
29452;SDS011;16424;50.956;5.320;2023-05-10T11:31:56;12.45;;;4.45;;
29452;SDS011;16424;50.956;5.320;2023-05-10T11:34:26;7.28;;;4.50;;
29452;SDS011;16424;50.956;5.320;2023-05-10T11:36:55;8.63;;;4.57;;
29452;SDS011;16424;50.956;5.320;2023-05-10T11:39:25;6.72;;;4.20;;
29452;SDS011;16424;50.956;5.320;2023-05-10T11:41:55;5.65;;;3.78;;
29452;SDS011;16424;50.956;5.320;2023-05-10T11:44:21;6.43;;;4.30;;
29452;SDS011;16424;50.956;5.320;2023-05-10T11:46:47;6.18;;;4.13;;
29452;SDS011;16424;50.956;5.320;2023-05-10T11:49:14;7.28;;;3.92;;
29452;SDS011;16424;50.956;5.320;2023-05-10T11:51:40;7.85;;;4.45;;
29452;SDS011;16424;50.956;5.320;2023-05-10T11:54:07;6.28;;;3.63;;
29452;SDS011;16424;50.956;5.320;2023-05-10T11:56:35;6.47;;;4.03;;
29452;SDS011;16424;50.956;5.320;2023-05-10T11:59:02;5.47;;;3.95;;
29452;SDS011;16424;50.956;5.320;2023-05-10T12:01:29;8.63;;;4.43;;
29452;SDS011;16424;50.956;5.320;2023-05-10T12:03:56;5.38;;;3.38;;
29452;SDS011;16424;50.956;5.320;2023-05-10T12:06:26;4.60;;;3.63;;
29452;SDS011;16424;50.956;5.320;2023-05-10T12:08:53;4.63;;;2.97;;
29452;SDS011;16424;50.956;5.320;2023-05-10T12:11:19;5.45;;;3.00;;
29452;SDS011;16424;50.956;5.320;2023-05-10T12:13:46;5.05;;;3.17;;
29452;SDS011;16424;50.956;5.320;2023-05-10T12:16:16;7.93;;;3.28;;
29452;SDS011;16424;50.956;5.320;2023-05-10T12:18:42;4.68;;;2.95;;
29452;SDS011;16424;50.956;5.320;2023-05-10T12:21:11;4.03;;;2.67;;
29452;SDS011;16424;50.956;5.320;2023-05-10T12:23:40;4.88;;;2.53;;
29452;SDS011;16424;50.956;5.320;2023-05-10T12:26:09;4.65;;;2.70;;
29452;SDS011;16424;50.956;5.320;2023-05-10T12:28:35;3.72;;;2.63;;
29452;SDS011;16424;50.956;5.320;2023-05-10T12:31:02;4.70;;;2.70;;
29452;SDS011;16424;50.956;5.320;2023-05-10T12:33:35;2.92;;;2.20;;
29452;SDS011;16424;50.956;5.320;2023-05-10T12:36:04;3.42;;;2.65;;
29452;SDS011;16424;50.956;5.320;2023-05-10T12:38:34;3.38;;;2.35;;
29452;SDS011;16424;50.956;5.320;2023-05-10T12:41:03;4.03;;;2.60;;
29452;SDS011;16424;50.956;5.320;2023-05-10T12:43:34;4.88;;;2.55;;
29452;SDS011;16424;50.956;5.320;2023-05-10T12:48:39;3.92;;;2.50;;
29452;SDS011;16424;50.956;5.320;2023-05-10T12:51:06;3.72;;;2.25;;
29452;SDS011;16424;50.956;5.320;2023-05-10T12:53:37;4.68;;;3.20;;
29452;SDS011;16424;50.956;5.320;2023-05-10T12:56:03;5.70;;;3.13;;
29452;SDS011;16424;50.956;5.320;2023-05-10T12:58:29;4.20;;;2.55;;
29452;SDS011;16424;50.956;5.320;2023-05-10T13:00:55;3.88;;;2.70;;
29452;SDS011;16424;50.956;5.320;2023-05-10T13:03:21;4.25;;;2.72;;
29452;SDS011;16424;50.956;5.320;2023-05-10T13:05:47;3.97;;;2.30;;
29452;SDS011;16424;50.956;5.320;2023-05-10T13:08:13;3.17;;;2.28;;
29452;SDS011;16424;50.956;5.320;2023-05-10T13:10:39;3.35;;;1.80;;
29452;SDS011;16424;50.956;5.320;2023-05-10T13:13:05;1.90;;;1.70;;
29452;SDS011;16424;50.956;5.320;2023-05-10T13:15:32;1.88;;;1.50;;
29452;SDS011;16424;50.956;5.320;2023-05-10T13:17:58;3.20;;;1.42;;
29452;SDS011;16424;50.956;5.320;2023-05-10T13:20:24;2.67;;;1.55;;
29452;SDS011;16424;50.956;5.320;2023-05-10T13:22:50;3.50;;;1.40;;
29452;SDS011;16424;50.956;5.320;2023-05-10T13:25:16;1.40;;;1.00;;
29452;SDS011;16424;50.956;5.320;2023-05-10T13:27:41;1.67;;;1.50;;
29452;SDS011;16424;50.956;5.320;2023-05-10T13:30:08;2.15;;;1.20;;
29452;SDS011;16424;50.956;5.320;2023-05-10T13:32:34;3.05;;;1.17;;
29452;SDS011;16424;50.956;5.320;2023-05-10T13:35:00;2.17;;;1.30;;
29452;SDS011;16424;50.956;5.320;2023-05-10T13:37:28;1.92;;;1.67;;
29452;SDS011;16424;50.956;5.320;2023-05-10T13:39:54;2.72;;;1.50;;
29452;SDS011;16424;50.956;5.320;2023-05-10T13:42:21;2.75;;;1.40;;
29452;SDS011;16424;50.956;5.320;2023-05-10T13:44:48;1.48;;;1.15;;
29452;SDS011;16424;50.956;5.320;2023-05-10T13:47:14;1.02;;;0.93;;
29452;SDS011;16424;50.956;5.320;2023-05-10T13:49:39;5.75;;;1.30;;
29452;SDS011;16424;50.956;5.320;2023-05-10T13:52:05;1.77;;;1.27;;
29452;SDS011;16424;50.956;5.320;2023-05-10T13:54:32;1.17;;;1.08;;
29452;SDS011;16424;50.956;5.320;2023-05-10T13:57:02;1.65;;;1.10;;
29452;SDS011;16424;50.956;5.320;2023-05-10T13:59:28;1.05;;;0.95;;
29452;SDS011;16424;50.956;5.320;2023-05-10T14:01:54;0.95;;;0.80;;
29452;SDS011;16424;50.956;5.320;2023-05-10T14:04:19;1.88;;;1.20;;
29452;SDS011;16424;50.956;5.320;2023-05-10T14:06:45;1.23;;;1.10;;
29452;SDS011;16424;50.956;5.320;2023-05-10T14:09:11;2.33;;;1.00;;
29452;SDS011;16424;50.956;5.320;2023-05-10T14:11:37;1.30;;;1.00;;
29452;SDS011;16424;50.956;5.320;2023-05-10T14:14:06;1.42;;;0.88;;
29452;SDS011;16424;50.956;5.320;2023-05-10T14:16:33;3.03;;;1.27;;
29452;SDS011;16424;50.956;5.320;2023-05-10T14:18:59;1.20;;;1.00;;
29452;SDS011;16424;50.956;5.320;2023-05-10T14:21:24;2.67;;;1.30;;
29452;SDS011;16424;50.956;5.320;2023-05-10T14:23:50;2.78;;;1.30;;
29452;SDS011;16424;50.956;5.320;2023-05-10T14:26:16;1.35;;;1.25;;
29452;SDS011;16424;50.956;5.320;2023-05-10T14:28:41;1.38;;;1.15;;
29452;SDS011;16424;50.956;5.320;2023-05-10T14:31:07;1.85;;;1.55;;
29452;SDS011;16424;50.956;5.320;2023-05-10T14:33:33;2.10;;;1.80;;
29452;SDS011;16424;50.956;5.320;2023-05-10T14:35:58;2.90;;;1.95;;
29452;SDS011;16424;50.956;5.320;2023-05-10T14:38:24;2.30;;;1.83;;
29452;SDS011;16424;50.956;5.320;2023-05-10T14:40:51;3.53;;;1.40;;
29452;SDS011;16424;50.956;5.320;2023-05-10T14:43:17;2.70;;;2.13;;
29452;SDS011;16424;50.956;5.320;2023-05-10T14:45:42;3.50;;;2.58;;
29452;SDS011;16424;50.956;5.320;2023-05-10T14:48:08;2.65;;;1.92;;
29452;SDS011;16424;50.956;5.320;2023-05-10T14:50:37;3.28;;;2.83;;
29452;SDS011;16424;50.956;5.320;2023-05-10T14:53:03;2.53;;;2.30;;
29452;SDS011;16424;50.956;5.320;2023-05-10T14:55:29;7.88;;;2.20;;
29452;SDS011;16424;50.956;5.320;2023-05-10T14:57:55;2.85;;;1.92;;
29452;SDS011;16424;50.956;5.320;2023-05-10T15:00:21;2.65;;;1.80;;
29452;SDS011;16424;50.956;5.320;2023-05-10T15:02:47;2.35;;;1.63;;
29452;SDS011;16424;50.956;5.320;2023-05-10T15:05:13;2.38;;;1.42;;
29452;SDS011;16424;50.956;5.320;2023-05-10T15:07:39;4.68;;;2.05;;
29452;SDS011;16424;50.956;5.320;2023-05-10T15:10:05;3.13;;;2.05;;
29452;SDS011;16424;50.956;5.320;2023-05-10T15:12:31;2.45;;;1.52;;
29452;SDS011;16424;50.956;5.320;2023-05-10T15:14:56;2.42;;;1.67;;